sensor_id;sensor_type;location;lat;lon;timestamp;noise_LAeq;noise_LA_min;noise_LA_max;noise_LA01;noise_LA95
84588;Laerm;74812;47.466;8.992;2024-01-07T00:00:23;47.62;44.43;58.75;;
84588;Laerm;74812;47.466;8.992;2024-01-07T00:02:49;46.84;44.34;53.57;;
84588;Laerm;74812;47.466;8.992;2024-01-07T00:05:14;51.29;44.23;66.21;;
84588;Laerm;74812;47.466;8.992;2024-01-07T00:07:39;46.71;44.35;52.74;;
84588;Laerm;74812;47.466;8.992;2024-01-07T00:10:05;46.71;44.19;54.21;;
84588;Laerm;74812;47.466;8.992;2024-01-07T00:12:31;46.70;44.27;52.98;;
84588;Laerm;74812;47.466;8.992;2024-01-07T00:14:56;47.03;44.47;54.20;;
84588;Laerm;74812;47.466;8.992;2024-01-07T00:17:21;47.33;44.39;53.69;;
84588;Laerm;74812;47.466;8.992;2024-01-07T00:19:47;47.41;44.39;52.41;;
84588;Laerm;74812;47.466;8.992;2024-01-07T00:22:12;46.85;44.11;53.82;;
84588;Laerm;74812;47.466;8.992;2024-01-07T00:24:38;46.92;44.27;53.47;;
84588;Laerm;74812;47.466;8.992;2024-01-07T00:27:03;47.40;44.73;57.37;;
84588;Laerm;74812;47.466;8.992;2024-01-07T00:29:28;47.27;44.62;61.24;;
84588;Laerm;74812;47.466;8.992;2024-01-07T00:31:54;47.30;44.43;54.37;;
84588;Laerm;74812;47.466;8.992;2024-01-07T00:34:19;47.45;44.76;55.39;;
84588;Laerm;74812;47.466;8.992;2024-01-07T00:36:44;47.20;44.62;53.97;;
84588;Laerm;74812;47.466;8.992;2024-01-07T00:39:10;47.28;44.31;54.51;;
84588;Laerm;74812;47.466;8.992;2024-01-07T00:41:35;47.16;44.58;53.57;;
84588;Laerm;74812;47.466;8.992;2024-01-07T00:44:00;47.38;44.47;53.86;;
84588;Laerm;74812;47.466;8.992;2024-01-07T00:46:26;47.41;44.73;54.77;;
84588;Laerm;74812;47.466;8.992;2024-01-07T00:48:51;47.44;44.87;53.22;;
84588;Laerm;74812;47.466;8.992;2024-01-07T00:51:16;47.23;44.39;54.07;;
84588;Laerm;74812;47.466;8.992;2024-01-07T00:53:42;47.42;44.73;53.45;;
84588;Laerm;74812;47.466;8.992;2024-01-07T00:56:07;47.36;44.62;54.52;;
84588;Laerm;74812;47.466;8.992;2024-01-07T00:58:32;47.06;44.39;52.07;;
84588;Laerm;74812;47.466;8.992;2024-01-07T01:00:58;48.22;44.54;61.42;;
84588;Laerm;74812;47.466;8.992;2024-01-07T01:03:25;47.39;44.54;55.59;;
84588;Laerm;74812;47.466;8.992;2024-01-07T01:05:50;47.14;44.62;53.82;;
84588;Laerm;74812;47.466;8.992;2024-01-07T01:08:16;47.22;44.35;53.43;;
84588;Laerm;74812;47.466;8.992;2024-01-07T01:10:41;46.81;44.38;51.87;;
84588;Laerm;74812;47.466;8.992;2024-01-07T01:13:06;57.65;44.65;85.56;;
84588;Laerm;74812;47.466;8.992;2024-01-07T01:15:32;46.97;44.39;54.24;;
84588;Laerm;74812;47.466;8.992;2024-01-07T01:17:57;46.98;44.35;57.51;;
84588;Laerm;74812;47.466;8.992;2024-01-07T01:20:23;46.85;44.35;52.79;;
84588;Laerm;74812;47.466;8.992;2024-01-07T01:22:48;46.67;44.35;52.60;;
84588;Laerm;74812;47.466;8.992;2024-01-07T01:25:14;46.69;44.51;53.04;;
84588;Laerm;74812;47.466;8.992;2024-01-07T01:27:39;46.47;44.19;53.03;;
84588;Laerm;74812;47.466;8.992;2024-01-07T01:30:04;46.86;44.31;53.47;;
84588;Laerm;74812;47.466;8.992;2024-01-07T01:32:30;46.46;44.11;53.13;;
84588;Laerm;74812;47.466;8.992;2024-01-07T01:34:55;46.37;44.07;54.83;;
84588;Laerm;74812;47.466;8.992;2024-01-07T01:37:21;46.45;44.23;54.08;;
84588;Laerm;74812;47.466;8.992;2024-01-07T01:39:46;46.64;43.99;52.38;;
84588;Laerm;74812;47.466;8.992;2024-01-07T01:42:12;46.35;44.27;52.22;;
84588;Laerm;74812;47.466;8.992;2024-01-07T01:44:38;46.45;44.15;53.33;;
84588;Laerm;74812;47.466;8.992;2024-01-07T01:47:03;46.36;44.31;54.93;;
84588;Laerm;74812;47.466;8.992;2024-01-07T01:49:30;46.68;44.19;53.25;;
84588;Laerm;74812;47.466;8.992;2024-01-07T01:51:56;46.54;44.19;54.68;;
84588;Laerm;74812;47.466;8.992;2024-01-07T01:54:21;47.26;44.23;62.38;;
84588;Laerm;74812;47.466;8.992;2024-01-07T01:56:47;54.48;44.31;73.10;;
84588;Laerm;74812;47.466;8.992;2024-01-07T01:59:13;47.06;44.35;55.72;;
84588;Laerm;74812;47.466;8.992;2024-01-07T02:01:39;47.02;44.27;54.39;;
84588;Laerm;74812;47.466;8.992;2024-01-07T02:04:05;46.83;44.35;53.81;;
84588;Laerm;74812;47.466;8.992;2024-01-07T02:06:30;46.88;44.31;54.25;;
84588;Laerm;74812;47.466;8.992;2024-01-07T02:08:56;46.73;44.23;52.81;;
84588;Laerm;74812;47.466;8.992;2024-01-07T02:11:21;46.72;44.39;53.56;;
84588;Laerm;74812;47.466;8.992;2024-01-07T02:13:47;47.10;44.58;55.32;;
84588;Laerm;74812;47.466;8.992;2024-01-07T02:16:13;46.72;44.03;54.27;;
84588;Laerm;74812;47.466;8.992;2024-01-07T02:18:42;52.81;44.23;68.05;;
84588;Laerm;74812;47.466;8.992;2024-01-07T02:21:12;46.65;44.11;52.19;;
84588;Laerm;74812;47.466;8.992;2024-01-07T02:23:38;46.37;44.15;51.68;;
84588;Laerm;74812;47.466;8.992;2024-01-07T02:26:03;46.26;44.08;50.59;;
84588;Laerm;74812;47.466;8.992;2024-01-07T02:28:29;46.30;44.15;50.42;;
84588;Laerm;74812;47.466;8.992;2024-01-07T02:30:55;46.24;44.07;52.88;;
84588;Laerm;74812;47.466;8.992;2024-01-07T02:33:20;46.10;43.72;51.25;;
84588;Laerm;74812;47.466;8.992;2024-01-07T02:35:46;46.11;44.03;52.87;;
84588;Laerm;74812;47.466;8.992;2024-01-07T02:38:11;46.36;43.90;55.39;;
84588;Laerm;74812;47.466;8.992;2024-01-07T02:40:37;46.12;43.90;52.72;;
84588;Laerm;74812;47.466;8.992;2024-01-07T02:43:02;46.21;43.68;52.57;;
84588;Laerm;74812;47.466;8.992;2024-01-07T02:45:28;46.85;44.19;54.36;;
84588;Laerm;74812;47.466;8.992;2024-01-07T02:47:54;47.06;44.35;55.29;;
84588;Laerm;74812;47.466;8.992;2024-01-07T02:50:19;46.87;44.35;52.29;;
84588;Laerm;74812;47.466;8.992;2024-01-07T02:52:44;47.11;44.39;58.48;;
84588;Laerm;74812;47.466;8.992;2024-01-07T02:55:10;46.87;43.86;54.91;;
84588;Laerm;74812;47.466;8.992;2024-01-07T02:57:35;46.94;44.31;53.31;;
84588;Laerm;74812;47.466;8.992;2024-01-07T03:00:00;46.98;44.19;53.21;;
84588;Laerm;74812;47.466;8.992;2024-01-07T03:02:26;47.02;44.19;54.18;;
84588;Laerm;74812;47.466;8.992;2024-01-07T03:04:51;46.87;44.27;53.68;;
84588;Laerm;74812;47.466;8.992;2024-01-07T03:07:16;57.02;44.39;73.15;;
84588;Laerm;74812;47.466;8.992;2024-01-07T03:09:42;46.97;44.31;52.96;;
84588;Laerm;74812;47.466;8.992;2024-01-07T03:12:07;46.82;44.27;52.57;;
84588;Laerm;74812;47.466;8.992;2024-01-07T03:14:33;46.88;44.31;54.25;;
84588;Laerm;74812;47.466;8.992;2024-01-07T03:16:58;46.72;44.19;52.81;;
84588;Laerm;74812;47.466;8.992;2024-01-07T03:19:23;47.02;44.54;55.35;;
84588;Laerm;74812;47.466;8.992;2024-01-07T03:21:49;46.81;44.11;52.33;;
84588;Laerm;74812;47.466;8.992;2024-01-07T03:24:14;46.57;44.03;52.14;;
84588;Laerm;74812;47.466;8.992;2024-01-07T03:26:40;46.38;43.99;50.96;;
84588;Laerm;74812;47.466;8.992;2024-01-07T03:29:05;47.84;44.23;58.41;;
84588;Laerm;74812;47.466;8.992;2024-01-07T03:31:30;46.42;43.72;53.14;;
84588;Laerm;74812;47.466;8.992;2024-01-07T03:33:56;46.02;44.07;53.66;;
84588;Laerm;74812;47.466;8.992;2024-01-07T03:36:21;46.11;43.94;49.94;;
84588;Laerm;74812;47.466;8.992;2024-01-07T03:38:47;45.97;43.99;53.25;;
84588;Laerm;74812;47.466;8.992;2024-01-07T03:41:16;45.82;43.90;54.96;;
84588;Laerm;74812;47.466;8.992;2024-01-07T03:43:43;45.66;43.90;53.57;;
84588;Laerm;74812;47.466;8.992;2024-01-07T03:46:09;45.60;43.81;54.84;;
84588;Laerm;74812;47.466;8.992;2024-01-07T03:48:34;45.72;43.49;50.92;;
84588;Laerm;74812;47.466;8.992;2024-01-07T03:50:59;45.79;43.81;52.29;;
84588;Laerm;74812;47.466;8.992;2024-01-07T03:53:25;45.60;43.81;50.29;;
84588;Laerm;74812;47.466;8.992;2024-01-07T03:55:50;45.72;43.81;49.91;;
84588;Laerm;74812;47.466;8.992;2024-01-07T03:58:15;45.45;43.72;49.63;;
84588;Laerm;74812;47.466;8.992;2024-01-07T04:00:41;45.50;43.68;49.64;;
84588;Laerm;74812;47.466;8.992;2024-01-07T04:03:06;45.46;43.63;48.94;;
84588;Laerm;74812;47.466;8.992;2024-01-07T04:05:31;45.45;43.58;50.56;;
84588;Laerm;74812;47.466;8.992;2024-01-07T04:07:59;45.54;43.68;50.77;;
84588;Laerm;74812;47.466;8.992;2024-01-07T04:10:25;45.81;43.81;50.95;;
84588;Laerm;74812;47.466;8.992;2024-01-07T04:12:50;45.92;43.09;51.91;;
84588;Laerm;74812;47.466;8.992;2024-01-07T04:15:16;45.52;43.86;50.76;;
84588;Laerm;74812;47.466;8.992;2024-01-07T04:17:41;45.70;43.99;50.56;;
84588;Laerm;74812;47.466;8.992;2024-01-07T04:20:07;45.53;43.77;53.46;;
84588;Laerm;74812;47.466;8.992;2024-01-07T04:22:33;45.51;43.39;50.77;;
84588;Laerm;74812;47.466;8.992;2024-01-07T04:24:58;45.57;43.77;52.42;;
84588;Laerm;74812;47.466;8.992;2024-01-07T04:27:23;45.66;43.94;51.64;;
84588;Laerm;74812;47.466;8.992;2024-01-07T04:29:50;45.84;43.34;52.28;;
84588;Laerm;74812;47.466;8.992;2024-01-07T04:32:15;46.16;43.68;52.35;;
84588;Laerm;74812;47.466;8.992;2024-01-07T04:34:40;46.70;44.23;55.44;;
84588;Laerm;74812;47.466;8.992;2024-01-07T04:37:06;47.39;44.58;53.79;;
84588;Laerm;74812;47.466;8.992;2024-01-07T04:39:31;46.77;44.31;52.98;;
84588;Laerm;74812;47.466;8.992;2024-01-07T04:41:56;46.57;43.86;51.83;;
84588;Laerm;74812;47.466;8.992;2024-01-07T04:44:22;46.73;44.51;52.72;;
84588;Laerm;74812;47.466;8.992;2024-01-07T04:46:47;46.85;44.27;55.78;;
84588;Laerm;74812;47.466;8.992;2024-01-07T04:49:14;47.00;44.43;52.40;;
84588;Laerm;74812;47.466;8.992;2024-01-07T04:51:39;47.19;44.54;54.17;;
84588;Laerm;74812;47.466;8.992;2024-01-07T04:54:05;49.41;44.58;63.11;;
84588;Laerm;74812;47.466;8.992;2024-01-07T04:56:31;53.02;44.76;69.59;;
84588;Laerm;74812;47.466;8.992;2024-01-07T04:58:56;47.71;44.62;54.17;;
84588;Laerm;74812;47.466;8.992;2024-01-07T05:01:22;48.05;44.80;54.34;;
84588;Laerm;74812;47.466;8.992;2024-01-07T05:03:47;47.39;44.62;52.92;;
84588;Laerm;74812;47.466;8.992;2024-01-07T05:06:12;54.87;44.47;73.30;;
84588;Laerm;74812;47.466;8.992;2024-01-07T05:08:39;46.88;44.87;52.86;;
84588;Laerm;74812;47.466;8.992;2024-01-07T05:11:05;47.04;44.65;52.26;;
84588;Laerm;74812;47.466;8.992;2024-01-07T05:13:31;46.79;44.31;53.27;;
84588;Laerm;74812;47.466;8.992;2024-01-07T05:15:56;46.64;44.19;54.29;;
84588;Laerm;74812;47.466;8.992;2024-01-07T05:18:22;46.38;44.19;52.05;;
84588;Laerm;74812;47.466;8.992;2024-01-07T05:20:47;46.19;44.27;51.65;;
84588;Laerm;74812;47.466;8.992;2024-01-07T05:23:12;46.41;44.35;51.76;;
84588;Laerm;74812;47.466;8.992;2024-01-07T05:25:38;46.15;43.99;52.34;;
84588;Laerm;74812;47.466;8.992;2024-01-07T05:28:03;46.26;43.99;52.39;;
84588;Laerm;74812;47.466;8.992;2024-01-07T05:30:29;46.79;43.94;52.69;;
84588;Laerm;74812;47.466;8.992;2024-01-07T05:32:54;48.12;43.99;54.52;;
84588;Laerm;74812;47.466;8.992;2024-01-07T05:35:19;46.49;43.94;52.72;;
84588;Laerm;74812;47.466;8.992;2024-01-07T05:37:45;47.01;44.65;53.99;;
84588;Laerm;74812;47.466;8.992;2024-01-07T05:40:10;47.09;44.58;52.38;;
84588;Laerm;74812;47.466;8.992;2024-01-07T05:42:35;47.52;44.97;54.35;;
84588;Laerm;74812;47.466;8.992;2024-01-07T05:45:01;47.52;44.54;54.11;;
84588;Laerm;74812;47.466;8.992;2024-01-07T05:47:27;47.24;44.69;51.95;;
84588;Laerm;74812;47.466;8.992;2024-01-07T05:49:53;47.42;44.23;53.23;;
84588;Laerm;74812;47.466;8.992;2024-01-07T05:52:18;47.57;44.76;53.36;;
84588;Laerm;74812;47.466;8.992;2024-01-07T05:54:44;47.49;44.73;53.61;;
84588;Laerm;74812;47.466;8.992;2024-01-07T05:57:10;47.67;44.86;53.00;;
84588;Laerm;74812;47.466;8.992;2024-01-07T05:59:36;48.47;44.76;57.33;;
84588;Laerm;74812;47.466;8.992;2024-01-07T06:02:01;48.26;45.17;54.02;;
84588;Laerm;74812;47.466;8.992;2024-01-07T06:04:26;48.24;45.33;54.40;;
84588;Laerm;74812;47.466;8.992;2024-01-07T06:06:52;47.91;44.83;55.58;;
84588;Laerm;74812;47.466;8.992;2024-01-07T06:09:17;48.03;45.14;54.76;;
84588;Laerm;74812;47.466;8.992;2024-01-07T06:11:43;48.47;45.48;54.83;;
84588;Laerm;74812;47.466;8.992;2024-01-07T06:14:08;49.28;45.04;56.22;;
84588;Laerm;74812;47.466;8.992;2024-01-07T06:16:33;48.82;45.27;55.73;;
84588;Laerm;74812;47.466;8.992;2024-01-07T06:18:59;55.51;45.01;71.68;;
84588;Laerm;74812;47.466;8.992;2024-01-07T06:21:24;47.98;44.69;55.52;;
84588;Laerm;74812;47.466;8.992;2024-01-07T06:23:49;48.48;45.14;58.34;;
84588;Laerm;74812;47.466;8.992;2024-01-07T06:26:15;47.84;44.94;53.71;;
84588;Laerm;74812;47.466;8.992;2024-01-07T06:28:40;48.06;44.90;58.81;;
84588;Laerm;74812;47.466;8.992;2024-01-07T06:31:06;48.30;44.54;56.40;;
84588;Laerm;74812;47.466;8.992;2024-01-07T06:33:31;69.51;44.94;92.52;;
84588;Laerm;74812;47.466;8.992;2024-01-07T06:35:57;47.74;45.01;54.12;;
84588;Laerm;74812;47.466;8.992;2024-01-07T06:38:23;47.87;45.14;53.61;;
84588;Laerm;74812;47.466;8.992;2024-01-07T06:40:49;47.89;45.17;53.47;;
84588;Laerm;74812;47.466;8.992;2024-01-07T06:43:14;48.01;44.62;60.96;;
84588;Laerm;74812;47.466;8.992;2024-01-07T06:45:40;48.62;44.69;61.82;;
84588;Laerm;74812;47.466;8.992;2024-01-07T06:48:05;48.78;44.90;64.18;;
84588;Laerm;74812;47.466;8.992;2024-01-07T06:50:31;52.79;44.76;69.60;;
84588;Laerm;74812;47.466;8.992;2024-01-07T06:52:56;52.59;44.94;69.22;;
84588;Laerm;74812;47.466;8.992;2024-01-07T06:55:21;51.67;44.79;69.51;;
84588;Laerm;74812;47.466;8.992;2024-01-07T06:57:47;50.49;44.76;69.27;;
84588;Laerm;74812;47.466;8.992;2024-01-07T07:00:12;48.45;44.83;56.87;;
84588;Laerm;74812;47.466;8.992;2024-01-07T07:02:38;48.05;44.65;54.54;;
84588;Laerm;74812;47.466;8.992;2024-01-07T07:05:03;47.49;44.51;56.77;;
84588;Laerm;74812;47.466;8.992;2024-01-07T07:07:28;48.65;44.39;60.48;;
84588;Laerm;74812;47.466;8.992;2024-01-07T07:09:54;49.30;44.54;57.73;;
84588;Laerm;74812;47.466;8.992;2024-01-07T07:12:19;47.37;44.58;55.22;;
84588;Laerm;74812;47.466;8.992;2024-01-07T07:14:45;47.52;44.07;57.64;;
84588;Laerm;74812;47.466;8.992;2024-01-07T07:17:10;47.75;44.58;54.09;;
84588;Laerm;74812;47.466;8.992;2024-01-07T07:19:35;47.17;44.03;52.76;;
84588;Laerm;74812;47.466;8.992;2024-01-07T07:22:01;48.45;44.62;65.30;;
84588;Laerm;74812;47.466;8.992;2024-01-07T07:24:26;46.98;43.86;57.61;;
84588;Laerm;74812;47.466;8.992;2024-01-07T07:26:51;47.23;43.81;59.15;;
84588;Laerm;74812;47.466;8.992;2024-01-07T07:29:17;47.39;44.39;54.16;;
84588;Laerm;74812;47.466;8.992;2024-01-07T07:31:42;48.55;44.80;63.22;;
84588;Laerm;74812;47.466;8.992;2024-01-07T07:34:08;52.04;46.43;65.45;;
84588;Laerm;74812;47.466;8.992;2024-01-07T07:36:34;51.67;45.80;62.83;;
84588;Laerm;74812;47.466;8.992;2024-01-07T07:38:59;48.43;44.90;59.30;;
84588;Laerm;74812;47.466;8.992;2024-01-07T07:41:25;48.46;44.58;65.37;;
84588;Laerm;74812;47.466;8.992;2024-01-07T07:43:50;51.72;45.04;68.28;;
84588;Laerm;74812;47.466;8.992;2024-01-07T07:46:15;49.44;45.04;66.83;;
84588;Laerm;74812;47.466;8.992;2024-01-07T07:48:41;58.88;44.39;77.89;;
84588;Laerm;74812;47.466;8.992;2024-01-07T07:51:07;49.11;45.01;64.73;;
84588;Laerm;74812;47.466;8.992;2024-01-07T07:53:32;50.22;45.39;70.24;;
84588;Laerm;74812;47.466;8.992;2024-01-07T07:55:57;50.15;45.57;69.50;;
84588;Laerm;74812;47.466;8.992;2024-01-07T07:58:23;51.22;45.69;67.02;;
84588;Laerm;74812;47.466;8.992;2024-01-07T08:00:48;50.22;45.51;63.24;;
84588;Laerm;74812;47.466;8.992;2024-01-07T08:03:13;49.03;45.57;59.78;;
84588;Laerm;74812;47.466;8.992;2024-01-07T08:05:39;48.91;45.75;55.24;;
84588;Laerm;74812;47.466;8.992;2024-01-07T08:08:07;58.08;45.01;82.04;;
84588;Laerm;74812;47.466;8.992;2024-01-07T08:10:35;52.53;45.01;68.40;;
84588;Laerm;74812;47.466;8.992;2024-01-07T08:13:01;48.89;45.23;62.64;;
84588;Laerm;74812;47.466;8.992;2024-01-07T08:15:26;48.43;45.20;59.56;;
84588;Laerm;74812;47.466;8.992;2024-01-07T08:17:52;48.38;45.42;60.88;;
84588;Laerm;74812;47.466;8.992;2024-01-07T08:20:17;51.24;45.60;62.84;;
84588;Laerm;74812;47.466;8.992;2024-01-07T08:22:43;58.94;46.95;68.50;;
84588;Laerm;74812;47.466;8.992;2024-01-07T08:25:08;63.72;57.66;73.49;;
84588;Laerm;74812;47.466;8.992;2024-01-07T08:27:37;63.19;57.78;70.95;;
84588;Laerm;74812;47.466;8.992;2024-01-07T08:30:02;60.82;45.39;70.66;;
84588;Laerm;74812;47.466;8.992;2024-01-07T08:32:28;48.29;45.14;62.44;;
84588;Laerm;74812;47.466;8.992;2024-01-07T08:34:53;47.86;44.83;55.25;;
84588;Laerm;74812;47.466;8.992;2024-01-07T08:37:19;47.87;44.83;54.39;;
84588;Laerm;74812;47.466;8.992;2024-01-07T08:39:44;48.83;45.20;62.82;;
84588;Laerm;74812;47.466;8.992;2024-01-07T08:42:10;52.22;45.14;68.24;;
84588;Laerm;74812;47.466;8.992;2024-01-07T08:44:35;49.82;45.42;71.09;;
84588;Laerm;74812;47.466;8.992;2024-01-07T08:47:00;48.31;45.42;53.86;;
84588;Laerm;74812;47.466;8.992;2024-01-07T08:49:27;53.50;45.14;69.13;;
84588;Laerm;74812;47.466;8.992;2024-01-07T08:51:53;50.19;46.07;63.52;;
84588;Laerm;74812;47.466;8.992;2024-01-07T08:54:18;49.45;45.77;64.72;;
84588;Laerm;74812;47.466;8.992;2024-01-07T08:56:43;49.57;46.50;53.82;;
84588;Laerm;74812;47.466;8.992;2024-01-07T08:59:10;49.39;45.57;58.41;;
84588;Laerm;74812;47.466;8.992;2024-01-07T09:01:36;48.81;45.45;55.66;;
84588;Laerm;74812;47.466;8.992;2024-01-07T09:04:01;48.84;45.54;54.31;;
84588;Laerm;74812;47.466;8.992;2024-01-07T09:06:27;48.59;45.51;54.73;;
84588;Laerm;74812;47.466;8.992;2024-01-07T09:08:52;48.34;45.36;54.36;;
84588;Laerm;74812;47.466;8.992;2024-01-07T09:11:20;48.31;45.39;53.60;;
84588;Laerm;74812;47.466;8.992;2024-01-07T09:13:46;48.20;45.14;55.52;;
84588;Laerm;74812;47.466;8.992;2024-01-07T09:16:14;48.67;45.27;56.09;;
84588;Laerm;74812;47.466;8.992;2024-01-07T09:18:39;51.51;46.80;59.85;;
84588;Laerm;74812;47.466;8.992;2024-01-07T09:21:05;51.45;46.71;56.84;;
84588;Laerm;74812;47.466;8.992;2024-01-07T09:23:31;49.20;45.30;68.09;;
84588;Laerm;74812;47.466;8.992;2024-01-07T09:25:58;48.69;45.14;54.45;;
84588;Laerm;74812;47.466;8.992;2024-01-07T09:28:24;50.63;45.42;63.34;;
84588;Laerm;74812;47.466;8.992;2024-01-07T09:30:50;55.10;46.50;64.25;;
84588;Laerm;74812;47.466;8.992;2024-01-07T09:33:16;56.17;45.27;73.60;;
84588;Laerm;74812;47.466;8.992;2024-01-07T09:35:41;56.31;45.54;71.58;;
84588;Laerm;74812;47.466;8.992;2024-01-07T09:38:07;48.59;45.27;54.93;;
84588;Laerm;74812;47.466;8.992;2024-01-07T09:40:32;52.87;45.42;67.06;;
84588;Laerm;74812;47.466;8.992;2024-01-07T09:42:57;52.83;46.02;63.13;;
84588;Laerm;74812;47.466;8.992;2024-01-07T09:45:24;49.12;45.77;60.27;;
84588;Laerm;74812;47.466;8.992;2024-01-07T09:47:50;49.07;45.39;61.08;;
84588;Laerm;74812;47.466;8.992;2024-01-07T09:50:15;49.38;45.75;58.83;;
84588;Laerm;74812;47.466;8.992;2024-01-07T09:52:43;52.54;46.18;66.95;;
84588;Laerm;74812;47.466;8.992;2024-01-07T09:55:08;56.02;46.87;67.23;;
84588;Laerm;74812;47.466;8.992;2024-01-07T09:57:34;54.18;46.57;68.33;;
84588;Laerm;74812;47.466;8.992;2024-01-07T10:00:00;49.28;45.99;63.57;;
84588;Laerm;74812;47.466;8.992;2024-01-07T10:02:26;55.60;45.89;71.01;;
84588;Laerm;74812;47.466;8.992;2024-01-07T10:04:51;50.05;45.66;63.24;;
84588;Laerm;74812;47.466;8.992;2024-01-07T10:07:17;48.93;45.07;54.99;;
84588;Laerm;74812;47.466;8.992;2024-01-07T10:09:43;50.44;45.89;65.11;;
84588;Laerm;74812;47.466;8.992;2024-01-07T10:12:08;56.95;49.94;65.79;;
84588;Laerm;74812;47.466;8.992;2024-01-07T10:14:34;55.64;45.83;65.51;;
84588;Laerm;74812;47.466;8.992;2024-01-07T10:16:59;51.31;45.99;59.70;;
84588;Laerm;74812;47.466;8.992;2024-01-07T10:19:25;48.92;45.20;54.10;;
84588;Laerm;74812;47.466;8.992;2024-01-07T10:22:03;48.84;45.48;53.28;;
84588;Laerm;74812;47.466;8.992;2024-01-07T10:24:31;48.86;45.45;55.35;;
84588;Laerm;74812;47.466;8.992;2024-01-07T10:27:00;49.24;45.51;61.61;;
84588;Laerm;74812;47.466;8.992;2024-01-07T10:29:26;50.32;45.75;64.13;;
84588;Laerm;74812;47.466;8.992;2024-01-07T10:31:52;49.42;46.18;54.50;;
84588;Laerm;74812;47.466;8.992;2024-01-07T10:34:17;49.42;46.13;57.11;;
84588;Laerm;74812;47.466;8.992;2024-01-07T10:36:45;49.88;45.04;66.71;;
84588;Laerm;74812;47.466;8.992;2024-01-07T10:39:10;49.41;45.66;56.76;;
84588;Laerm;74812;47.466;8.992;2024-01-07T10:41:36;49.19;45.48;54.91;;
84588;Laerm;74812;47.466;8.992;2024-01-07T10:44:02;53.24;45.91;67.23;;
84588;Laerm;74812;47.466;8.992;2024-01-07T10:46:28;48.96;45.80;57.34;;
84588;Laerm;74812;47.466;8.992;2024-01-07T10:48:55;49.20;45.63;57.74;;
84588;Laerm;74812;47.466;8.992;2024-01-07T10:51:24;49.21;45.54;60.98;;
84588;Laerm;74812;47.466;8.992;2024-01-07T10:53:51;50.11;46.33;56.17;;
84588;Laerm;74812;47.466;8.992;2024-01-07T10:56:18;49.82;45.65;63.02;;
84588;Laerm;74812;47.466;8.992;2024-01-07T10:58:45;49.59;45.48;62.21;;
84588;Laerm;74812;47.466;8.992;2024-01-07T11:01:11;49.52;46.23;56.53;;
84588;Laerm;74812;47.466;8.992;2024-01-07T11:03:43;56.55;46.80;72.73;;
84588;Laerm;74812;47.466;8.992;2024-01-07T11:08:45;53.03;45.23;67.31;;
84588;Laerm;74812;47.466;8.992;2024-01-07T11:11:13;51.19;45.66;63.67;;
84588;Laerm;74812;47.466;8.992;2024-01-07T11:13:40;48.97;45.86;57.12;;
84588;Laerm;74812;47.466;8.992;2024-01-07T11:16:06;49.79;45.94;67.40;;
84588;Laerm;74812;47.466;8.992;2024-01-07T11:18:37;50.07;45.54;67.67;;
84588;Laerm;74812;47.466;8.992;2024-01-07T11:21:06;49.18;45.86;57.57;;
84588;Laerm;74812;47.466;8.992;2024-01-07T11:26:06;49.10;45.80;54.28;;
84588;Laerm;74812;47.466;8.992;2024-01-07T11:31:16;53.29;45.97;71.19;;
84588;Laerm;74812;47.466;8.992;2024-01-07T11:33:42;50.15;45.94;61.44;;
84588;Laerm;74812;47.466;8.992;2024-01-07T11:36:10;51.34;45.97;65.86;;
84588;Laerm;74812;47.466;8.992;2024-01-07T11:38:36;56.66;45.97;73.97;;
84588;Laerm;74812;47.466;8.992;2024-01-07T11:41:04;49.49;45.99;54.59;;
84588;Laerm;74812;47.466;8.992;2024-01-07T11:43:31;49.11;45.97;55.75;;
84588;Laerm;74812;47.466;8.992;2024-01-07T11:45:56;49.68;46.35;55.81;;
84588;Laerm;74812;47.466;8.992;2024-01-07T11:48:22;52.73;46.30;73.64;;
84588;Laerm;74812;47.466;8.992;2024-01-07T11:50:47;49.66;46.30;63.76;;
84588;Laerm;74812;47.466;8.992;2024-01-07T11:53:12;50.00;46.40;55.45;;
84588;Laerm;74812;47.466;8.992;2024-01-07T11:55:38;50.51;47.00;55.61;;
84588;Laerm;74812;47.466;8.992;2024-01-07T11:58:03;55.32;46.50;79.29;;
84588;Laerm;74812;47.466;8.992;2024-01-07T12:00:33;52.07;47.00;71.88;;
84588;Laerm;74812;47.466;8.992;2024-01-07T12:02:59;52.09;45.97;64.31;;
84588;Laerm;74812;47.466;8.992;2024-01-07T12:05:25;49.92;46.35;58.64;;
84588;Laerm;74812;47.466;8.992;2024-01-07T12:07:50;49.29;46.05;57.59;;
84588;Laerm;74812;47.466;8.992;2024-01-07T12:10:16;49.81;46.07;59.13;;
84588;Laerm;74812;47.466;8.992;2024-01-07T12:12:42;50.96;47.18;59.02;;
84588;Laerm;74812;47.466;8.992;2024-01-07T12:15:08;51.29;47.96;61.32;;
84588;Laerm;74812;47.466;8.992;2024-01-07T12:17:34;49.97;46.28;60.99;;
84588;Laerm;74812;47.466;8.992;2024-01-07T12:20:00;49.55;46.13;54.12;;
84588;Laerm;74812;47.466;8.992;2024-01-07T12:22:28;49.19;45.86;54.57;;
84588;Laerm;74812;47.466;8.992;2024-01-07T12:25:01;49.44;46.02;60.79;;
84588;Laerm;74812;47.466;8.992;2024-01-07T12:27:27;50.01;46.13;57.00;;
84588;Laerm;74812;47.466;8.992;2024-01-07T12:29:56;50.73;46.02;60.03;;
84588;Laerm;74812;47.466;8.992;2024-01-07T12:32:22;50.82;45.54;63.43;;
84588;Laerm;74812;47.466;8.992;2024-01-07T12:34:47;49.39;45.66;57.27;;
84588;Laerm;74812;47.466;8.992;2024-01-07T12:37:13;48.62;45.27;54.09;;
84588;Laerm;74812;47.466;8.992;2024-01-07T12:39:38;51.30;45.45;66.69;;
84588;Laerm;74812;47.466;8.992;2024-01-07T12:42:04;49.09;45.99;60.88;;
84588;Laerm;74812;47.466;8.992;2024-01-07T12:44:29;49.46;45.20;63.54;;
84588;Laerm;74812;47.466;8.992;2024-01-07T12:46:55;48.65;45.48;56.21;;
84588;Laerm;74812;47.466;8.992;2024-01-07T12:49:20;49.13;45.51;63.22;;
84588;Laerm;74812;47.466;8.992;2024-01-07T12:51:47;48.99;45.80;57.02;;
84588;Laerm;74812;47.466;8.992;2024-01-07T12:54:12;55.86;47.08;67.36;;
84588;Laerm;74812;47.466;8.992;2024-01-07T12:56:38;49.62;46.55;57.19;;
84588;Laerm;74812;47.466;8.992;2024-01-07T12:59:03;54.99;46.07;68.50;;
84588;Laerm;74812;47.466;8.992;2024-01-07T13:01:29;49.81;46.30;64.17;;
84588;Laerm;74812;47.466;8.992;2024-01-07T13:03:56;53.71;46.76;72.30;;
84588;Laerm;74812;47.466;8.992;2024-01-07T13:06:21;50.98;46.89;69.42;;
84588;Laerm;74812;47.466;8.992;2024-01-07T13:08:48;50.74;47.08;66.01;;
84588;Laerm;74812;47.466;8.992;2024-01-07T13:11:13;52.12;47.79;67.49;;
84588;Laerm;74812;47.466;8.992;2024-01-07T13:13:40;51.21;47.38;57.64;;
84588;Laerm;74812;47.466;8.992;2024-01-07T13:16:05;49.86;46.91;56.00;;
84588;Laerm;74812;47.466;8.992;2024-01-07T13:18:31;50.61;47.30;55.38;;
84588;Laerm;74812;47.466;8.992;2024-01-07T13:20:56;56.07;47.42;71.31;;
84588;Laerm;74812;47.466;8.992;2024-01-07T13:23:22;50.84;47.74;55.84;;
84588;Laerm;74812;47.466;8.992;2024-01-07T13:25:47;51.74;47.52;61.20;;
84588;Laerm;74812;47.466;8.992;2024-01-07T13:28:13;51.16;47.77;55.13;;
84588;Laerm;74812;47.466;8.992;2024-01-07T13:30:38;54.54;47.02;75.90;;
84588;Laerm;74812;47.466;8.992;2024-01-07T13:33:05;51.12;46.88;66.06;;
84588;Laerm;74812;47.466;8.992;2024-01-07T13:35:30;50.65;47.57;60.84;;
84588;Laerm;74812;47.466;8.992;2024-01-07T13:37:56;50.43;46.78;55.24;;
84588;Laerm;74812;47.466;8.992;2024-01-07T13:40:22;54.37;47.65;67.29;;
84588;Laerm;74812;47.466;8.992;2024-01-07T13:42:47;51.20;47.28;61.01;;